createdAt,value
2023-01-09T00:01:21.631Z,81.51
2023-01-09T00:03:43.734Z,81.45
2023-01-09T00:06:06.007Z,81.25
2023-01-09T00:08:28.016Z,81.42
2023-01-09T00:10:50.621Z,81.09
2023-01-09T00:13:14.001Z,81.26
2023-01-09T00:15:35.890Z,81.26
2023-01-09T00:17:57.837Z,81.30
2023-01-09T00:20:19.936Z,81.25
2023-01-09T00:22:42.092Z,81.11
2023-01-09T00:25:05.244Z,80.96
2023-01-09T00:27:31.492Z,81.52
2023-01-09T00:29:53.484Z,81.05
2023-01-09T00:32:16.420Z,81.21
2023-01-09T00:34:39.591Z,81.60
2023-01-09T00:37:01.546Z,81.54
2023-01-09T00:39:23.771Z,81.33
2023-01-09T00:41:51.497Z,80.80
2023-01-09T00:44:32.839Z,81.08
2023-01-09T00:47:11.097Z,80.83
2023-01-09T00:49:36.903Z,81.39
2023-01-09T00:51:59.438Z,80.93
2023-01-09T00:54:22.055Z,81.24
2023-01-09T00:56:44.158Z,81.53
2023-01-09T00:59:07.954Z,81.33
2023-01-09T01:01:30.450Z,81.35
2023-01-09T01:03:52.750Z,81.35
2023-01-09T01:06:33.294Z,81.31
2023-01-09T01:08:56.106Z,81.48
2023-01-09T01:11:18.132Z,81.67
2023-01-09T01:13:41.797Z,81.57
2023-01-09T01:16:10.169Z,81.60
2023-01-09T01:18:32.771Z,81.89
2023-01-09T01:20:54.716Z,82.17
2023-01-09T01:23:17.340Z,81.98
2023-01-09T01:25:42.999Z,81.66
2023-01-09T01:28:06.654Z,82.29
2023-01-09T01:30:28.595Z,82.38
2023-01-09T01:32:50.623Z,82.20
2023-01-09T01:35:13.388Z,82.29
2023-01-09T01:37:38.277Z,82.26
2023-01-09T01:40:00.231Z,82.39
2023-01-09T01:42:22.896Z,82.54
2023-01-09T01:45:00.572Z,82.32
2023-01-09T01:47:29.149Z,82.64
2023-01-09T01:49:52.946Z,82.47
2023-01-09T01:52:17.546Z,82.63
2023-01-09T01:54:39.944Z,82.45
2023-01-09T01:57:05.432Z,82.42
2023-01-09T01:59:37.583Z,82.72
2023-01-09T02:02:02.884Z,83.42
2023-01-09T02:04:25.367Z,82.58
2023-01-09T02:06:52.130Z,83.20
2023-01-09T02:09:18.035Z,82.33
2023-01-09T02:11:46.354Z,82.53
2023-01-09T02:14:08.387Z,82.66
2023-01-09T02:16:55.029Z,82.59
2023-01-09T02:20:15.277Z,82.59
2023-01-09T02:23:28.963Z,82.93
2023-01-09T02:26:05.918Z,83.28
2023-01-09T02:29:27.852Z,83.70
2023-01-09T02:32:33.158Z,83.74
2023-01-09T02:35:07.344Z,83.46
2023-01-09T02:38:24.214Z,83.68
2023-01-09T02:41:26.879Z,83.52
2023-01-09T02:44:00.566Z,83.77
2023-01-09T02:46:23.287Z,84.53
2023-01-09T02:48:46.631Z,83.78
2023-01-09T02:52:01.365Z,84.11
2023-01-09T02:54:38.926Z,84.46
2023-01-09T02:58:10.357Z,84.45
2023-01-09T03:00:41.785Z,84.56
2023-01-09T03:03:40.798Z,84.03
2023-01-09T03:06:29.677Z,84.04
2023-01-09T03:09:01.410Z,84.46
2023-01-09T03:11:31.368Z,84.25
2023-01-09T03:14:05.443Z,84.69
2023-01-09T03:16:34.070Z,84.19
2023-01-09T03:18:58.760Z,84.51
2023-01-09T03:21:23.019Z,84.01
2023-01-09T03:23:54.875Z,84.12
2023-01-09T03:26:17.891Z,84.48
2023-01-09T03:28:40.025Z,84.32
2023-01-09T03:31:01.987Z,84.32
2023-01-09T03:33:23.979Z,84.42
2023-01-09T03:35:45.997Z,84.42
2023-01-09T03:38:08.135Z,84.31
2023-01-09T03:40:30.211Z,84.81
2023-01-09T03:42:52.100Z,84.69
2023-01-09T03:45:14.273Z,84.30
2023-01-09T03:47:36.491Z,85.09
2023-01-09T03:49:58.492Z,85.53
2023-01-09T03:52:20.425Z,85.29
2023-01-09T03:54:42.436Z,85.09
2023-01-09T03:57:04.400Z,85.63
2023-01-09T03:59:26.528Z,85.34
2023-01-09T04:01:48.522Z,85.28
2023-01-09T04:04:10.518Z,85.42
2023-01-09T04:06:32.565Z,85.00
2023-01-09T04:08:54.538Z,85.08
2023-01-09T04:11:18.266Z,84.97
2023-01-09T04:13:40.246Z,85.62
2023-01-09T04:16:02.280Z,85.08
2023-01-09T04:18:24.642Z,85.67
2023-01-09T04:20:49.984Z,85.17
2023-01-09T04:23:11.995Z,85.58
2023-01-09T04:25:34.597Z,85.40
2023-01-09T04:27:56.466Z,85.70
2023-01-09T04:30:18.831Z,85.48
2023-01-09T04:32:40.848Z,84.96
2023-01-09T04:35:02.872Z,85.08
2023-01-09T04:37:25.026Z,85.38
2023-01-09T04:39:47.054Z,85.74
2023-01-09T04:42:10.102Z,85.33
2023-01-09T04:44:32.043Z,85.32
2023-01-09T04:46:59.181Z,85.74
2023-01-09T04:49:22.287Z,85.70
2023-01-09T04:51:44.356Z,85.49
2023-01-09T04:54:07.043Z,85.95
2023-01-09T04:56:28.972Z,85.97
2023-01-09T04:58:51.022Z,85.97
2023-01-09T05:01:13.349Z,86.17
2023-01-09T05:03:35.467Z,86.61
2023-01-09T05:05:57.519Z,86.26
2023-01-09T05:08:19.513Z,86.34
2023-01-09T05:10:41.458Z,86.36
2023-01-09T05:13:03.357Z,86.33
2023-01-09T05:15:28.362Z,86.26
2023-01-09T05:17:50.467Z,86.13
2023-01-09T05:20:12.578Z,86.05
2023-01-09T05:22:34.508Z,85.66
2023-01-09T05:24:56.590Z,85.69
2023-01-09T05:27:18.961Z,85.72
2023-01-09T05:29:40.997Z,85.37
2023-01-09T05:32:03.036Z,85.36
2023-01-09T05:34:25.711Z,85.22
2023-01-09T05:36:47.741Z,85.02
2023-01-09T05:39:10.150Z,85.07
2023-01-09T05:41:32.280Z,84.86
2023-01-09T05:43:54.455Z,84.81
2023-01-09T05:46:16.403Z,84.57
2023-01-09T05:48:38.828Z,83.97
2023-01-09T05:51:01.097Z,84.01
2023-01-09T05:53:22.988Z,84.09
2023-01-09T05:55:45.593Z,84.24
2023-01-09T05:58:07.726Z,84.30
2023-01-09T06:00:29.684Z,83.84
2023-01-09T06:02:51.861Z,83.83
2023-01-09T06:05:13.901Z,83.71
2023-01-09T06:07:39.326Z,83.89
2023-01-09T06:10:01.524Z,83.61
2023-01-09T06:12:23.488Z,83.58
2023-01-09T06:14:45.514Z,83.35
2023-01-09T06:17:07.565Z,82.79
2023-01-09T06:19:29.511Z,82.52
2023-01-09T06:21:53.666Z,82.72
2023-01-09T06:24:17.092Z,83.01
2023-01-09T06:26:39.051Z,82.98
2023-01-09T06:29:01.720Z,82.77
2023-01-09T06:31:25.278Z,82.79
2023-01-09T06:33:47.498Z,82.70
2023-01-09T06:36:09.652Z,82.77
2023-01-09T06:38:31.649Z,82.79
2023-01-09T06:40:53.579Z,83.09
2023-01-09T06:43:15.685Z,82.91
2023-01-09T06:45:37.825Z,82.78
2023-01-09T06:47:59.895Z,82.70
2023-01-09T06:50:21.941Z,83.57
2023-01-09T06:52:44.020Z,83.63
2023-01-09T06:55:07.814Z,83.95
2023-01-09T06:57:29.771Z,83.93
2023-01-09T06:59:51.765Z,83.77
2023-01-09T07:02:21.180Z,83.80
2023-01-09T07:04:43.210Z,84.01
2023-01-09T07:07:05.181Z,83.80
2023-01-09T07:09:27.184Z,83.88
2023-01-09T07:11:49.360Z,84.08
2023-01-09T07:14:11.293Z,83.85
2023-01-09T07:16:33.650Z,83.87
2023-01-09T07:18:55.825Z,83.78
2023-01-09T07:21:17.735Z,83.39
2023-01-09T07:23:39.724Z,83.64
2023-01-09T07:26:01.847Z,83.65
2023-01-09T07:28:23.955Z,83.73
2023-01-09T07:30:46.006Z,83.89
2023-01-09T07:33:07.981Z,83.94
2023-01-09T07:35:29.893Z,83.45
2023-01-09T07:37:52.028Z,84.46
2023-01-09T07:40:15.525Z,84.14
2023-01-09T07:42:37.502Z,83.69
2023-01-09T07:44:59.508Z,84.17
2023-01-09T07:47:21.525Z,83.66
2023-01-09T07:49:43.680Z,84.33
2023-01-09T07:52:06.170Z,84.36
2023-01-09T07:54:28.171Z,83.81
2023-01-09T07:56:50.539Z,83.89
2023-01-09T07:59:12.625Z,83.66
2023-01-09T08:01:35.015Z,83.70
2023-01-09T08:03:57.081Z,83.55
2023-01-09T08:06:19.275Z,83.65
2023-01-09T08:08:41.315Z,83.52
2023-01-09T08:11:03.382Z,83.57
2023-01-09T08:13:25.312Z,83.44
2023-01-09T08:15:47.610Z,83.40
2023-01-09T08:18:09.610Z,83.45
2023-01-09T08:20:32.035Z,83.54
2023-01-09T08:22:55.155Z,83.59
2023-01-09T08:25:18.438Z,83.85
2023-01-09T08:27:40.545Z,83.21
2023-01-09T08:30:02.645Z,83.51
2023-01-09T08:32:24.789Z,83.21
2023-01-09T08:34:46.758Z,83.31
2023-01-09T08:37:08.665Z,82.85
2023-01-09T08:39:30.529Z,82.77
2023-01-09T08:42:24.962Z,82.87
2023-01-09T08:45:05.280Z,82.75
2023-01-09T08:47:28.865Z,82.92
2023-01-09T08:49:50.869Z,82.99
2023-01-09T08:52:13.801Z,82.90
2023-01-09T08:54:38.996Z,82.86
2023-01-09T08:57:00.987Z,82.69
2023-01-09T08:59:23.646Z,82.80
2023-01-09T09:01:45.650Z,82.55
2023-01-09T09:04:07.771Z,82.44
2023-01-09T09:06:29.744Z,82.16
2023-01-09T09:08:51.756Z,82.04
2023-01-09T09:11:13.791Z,82.43
2023-01-09T09:13:35.718Z,82.46
2023-01-09T09:15:57.752Z,82.26
2023-01-09T09:18:19.735Z,83.05
2023-01-09T09:20:41.774Z,83.19
2023-01-09T09:23:04.813Z,82.80
2023-01-09T09:25:27.873Z,83.07
2023-01-09T09:27:50.206Z,83.06
2023-01-09T09:30:15.046Z,83.54
2023-01-09T09:32:37.127Z,83.71
2023-01-09T09:34:59.083Z,83.65
2023-01-09T09:37:21.052Z,84.09
2023-01-09T09:39:43.062Z,84.09
2023-01-09T09:42:54.709Z,83.86
2023-01-09T09:46:04.205Z,84.47
2023-01-09T09:49:19.177Z,84.35
2023-01-09T09:52:09.504Z,84.17
2023-01-09T09:54:53.533Z,84.54
2023-01-09T09:57:23.503Z,84.43
2023-01-09T09:59:51.539Z,84.36
2023-01-09T10:02:30.350Z,84.45
2023-01-09T10:05:04.887Z,84.51
2023-01-09T10:07:41.821Z,84.56
2023-01-09T10:10:14.579Z,84.73
2023-01-09T10:12:52.244Z,84.53
2023-01-09T10:15:25.213Z,84.53
2023-01-09T10:17:53.022Z,84.73
2023-01-09T10:20:50.684Z,84.36
2023-01-09T10:24:02.803Z,84.54
2023-01-09T10:26:48.627Z,84.76
2023-01-09T10:29:41.746Z,83.80
2023-01-09T10:32:31.848Z,83.85
2023-01-09T10:35:07.453Z,83.36
2023-01-09T10:37:45.866Z,83.05
2023-01-09T10:40:31.108Z,82.97
2023-01-09T10:43:06.458Z,82.70
2023-01-09T10:45:51.125Z,82.91
2023-01-09T10:48:32.195Z,83.22
2023-01-09T10:50:57.252Z,82.89
2023-01-09T10:53:33.134Z,82.86
2023-01-09T10:56:13.604Z,83.07
2023-01-09T10:58:35.623Z,81.89
2023-01-09T11:01:01.426Z,81.31
2023-01-09T11:03:25.210Z,80.97
2023-01-09T11:05:59.521Z,80.38
2023-01-09T11:08:41.938Z,80.09
2023-01-09T11:11:04.415Z,79.90
2023-01-09T11:13:36.531Z,79.78
2023-01-09T11:16:11.065Z,79.67
2023-01-09T11:18:38.063Z,79.90
2023-01-09T11:21:25.983Z,79.80
2023-01-09T11:23:50.118Z,79.98
2023-01-09T11:26:27.214Z,80.16
2023-01-09T11:29:20.023Z,80.53
2023-01-09T11:31:52.462Z,80.53
2023-01-09T11:34:31.107Z,80.79
2023-01-09T11:37:02.295Z,80.89
2023-01-09T11:39:35.445Z,80.86
2023-01-09T11:42:06.256Z,81.19
2023-01-09T11:44:31.634Z,80.89
2023-01-09T11:46:53.779Z,80.76
2023-01-09T11:49:15.677Z,80.69
2023-01-09T11:51:37.673Z,80.20
2023-01-09T11:54:16.678Z,79.85
2023-01-09T11:56:39.551Z,78.92
2023-01-09T11:59:01.813Z,78.79
2023-01-09T12:01:42.478Z,78.61
2023-01-09T12:04:16.620Z,78.44
2023-01-09T12:07:01.352Z,78.07
2023-01-09T12:09:33.041Z,78.00
2023-01-09T12:12:40.328Z,77.72
2023-01-09T12:15:13.900Z,77.83
2023-01-09T12:18:23.660Z,77.59
2023-01-09T12:20:59.081Z,77.24
2023-01-09T12:23:32.566Z,77.41
2023-01-09T12:26:13.182Z,77.16
2023-01-09T12:28:56.118Z,77.06
2023-01-09T12:31:45.575Z,76.75
2023-01-09T12:34:40.433Z,77.00
2023-01-09T12:37:42.439Z,77.59
2023-01-09T12:40:22.610Z,77.86
2023-01-09T12:43:16.975Z,78.20
2023-01-09T12:46:23.172Z,78.69
2023-01-09T12:49:25.615Z,78.78
2023-01-09T12:52:06.042Z,78.54
2023-01-09T12:54:51.475Z,78.68
2023-01-09T12:57:25.482Z,78.87
2023-01-09T13:00:15.137Z,78.54
2023-01-09T13:03:00.447Z,78.15
2023-01-09T13:05:37.944Z,78.17
2023-01-09T13:08:29.712Z,78.09
2023-01-09T13:10:56.051Z,77.50
2023-01-09T13:13:55.381Z,77.29
2023-01-09T13:16:50.595Z,76.92
2023-01-09T13:19:27.840Z,77.20
2023-01-09T13:21:51.907Z,78.00
2023-01-09T13:25:19.966Z,78.25
2023-01-09T13:27:52.523Z,78.54
2023-01-09T13:30:49.762Z,78.78
2023-01-09T13:33:13.887Z,77.78
2023-01-09T13:35:50.347Z,77.48
2023-01-09T13:38:20.847Z,78.21
2023-01-09T13:40:49.214Z,78.96
2023-01-09T13:43:16.749Z,79.83
2023-01-09T13:45:40.523Z,80.07
2023-01-09T13:48:12.054Z,81.22
2023-01-09T13:50:35.636Z,81.41
2023-01-09T13:53:17.600Z,80.92
2023-01-09T13:55:59.795Z,80.61
2023-01-09T13:58:27.219Z,80.53
2023-01-09T14:00:51.527Z,80.25
2023-01-09T14:03:34.938Z,79.68
2023-01-09T14:05:56.764Z,79.60
2023-01-09T14:08:22.326Z,79.23
2023-01-09T14:10:44.237Z,78.85
2023-01-09T14:13:23.937Z,78.34
2023-01-09T14:15:49.652Z,78.54
2023-01-09T14:18:25.359Z,77.89
2023-01-09T14:21:12.657Z,77.96
2023-01-09T14:23:52.597Z,78.14
2023-01-09T14:26:25.093Z,78.18
2023-01-09T14:28:47.359Z,78.24
2023-01-09T14:31:25.957Z,78.03
2023-01-09T14:33:48.068Z,77.01
2023-01-09T14:36:22.076Z,77.33
2023-01-09T14:38:49.341Z,76.15
2023-01-09T14:42:06.752Z,76.23
2023-01-09T14:44:47.353Z,76.51
2023-01-09T14:47:31.246Z,76.21
2023-01-09T14:50:24.927Z,76.46
2023-01-09T14:53:08.313Z,76.88
2023-01-09T14:55:38.159Z,76.97
2023-01-09T14:58:18.428Z,77.26
2023-01-09T15:00:53.751Z,77.61
2023-01-09T15:03:16.682Z,78.15
2023-01-09T15:05:38.895Z,78.16
2023-01-09T15:08:04.973Z,78.56
2023-01-09T15:10:32.344Z,78.56
2023-01-09T15:12:58.513Z,78.43
2023-01-09T15:15:22.732Z,78.54
2023-01-09T15:18:02.068Z,78.38
2023-01-09T15:20:30.054Z,78.57
2023-01-09T15:22:54.581Z,78.70
2023-01-09T15:25:45.393Z,79.04
2023-01-09T15:28:26.131Z,79.03
2023-01-09T15:31:00.993Z,79.55
2023-01-09T15:33:22.994Z,79.86
2023-01-09T15:35:50.323Z,79.86
2023-01-09T15:38:18.350Z,79.77
2023-01-09T15:40:40.809Z,80.01
2023-01-09T15:43:04.457Z,79.87
2023-01-09T15:45:37.293Z,80.44
2023-01-09T15:48:33.516Z,80.78
2023-01-09T15:51:04.473Z,80.19
2023-01-09T15:53:29.305Z,79.76
2023-01-09T15:56:25.103Z,79.72
2023-01-09T15:58:50.628Z,80.41
2023-01-09T16:01:38.347Z,81.29
2023-01-09T16:04:11.514Z,81.55
2023-01-09T16:06:37.898Z,81.66
2023-01-09T16:09:01.675Z,81.95
2023-01-09T16:11:35.857Z,81.78
2023-01-09T16:14:17.195Z,81.85
2023-01-09T16:16:41.191Z,81.84
2023-01-09T16:19:03.283Z,81.88
2023-01-09T16:21:35.716Z,81.84
2023-01-09T16:24:14.499Z,82.06
2023-01-09T16:26:36.808Z,81.27
2023-01-09T16:29:33.925Z,81.87
2023-01-09T16:32:06.131Z,81.42
2023-01-09T16:34:28.837Z,81.86
2023-01-09T16:36:50.945Z,81.24
2023-01-09T16:39:16.751Z,81.45
2023-01-09T16:42:02.228Z,81.53
2023-01-09T16:44:24.178Z,81.87
2023-01-09T16:46:46.474Z,81.81
2023-01-09T16:49:22.842Z,81.85
2023-01-09T16:51:45.540Z,81.57
2023-01-09T16:54:07.399Z,81.91
2023-01-09T16:56:30.819Z,81.82
2023-01-09T16:58:54.813Z,82.00
2023-01-09T17:01:16.817Z,82.14
2023-01-09T17:03:39.058Z,81.88
2023-01-09T17:06:03.659Z,82.33
2023-01-09T17:08:30.310Z,81.95
2023-01-09T17:10:54.443Z,81.69
2023-01-09T17:13:16.401Z,82.01
2023-01-09T17:15:38.482Z,81.72
2023-01-09T17:18:01.799Z,81.52
2023-01-09T17:20:25.387Z,81.68
2023-01-09T17:22:47.392Z,81.36
2023-01-09T17:25:41.441Z,81.45
2023-01-09T17:28:22.929Z,81.53
2023-01-09T17:30:44.835Z,81.78
2023-01-09T17:33:18.693Z,81.60
2023-01-09T17:35:40.850Z,81.46
2023-01-09T17:38:02.853Z,81.60
2023-01-09T17:40:25.005Z,81.71
2023-01-09T17:42:47.128Z,81.53
2023-01-09T17:45:10.291Z,82.26
2023-01-09T17:47:33.933Z,82.40
2023-01-09T17:49:55.812Z,81.99
2023-01-09T17:52:17.793Z,82.40
2023-01-09T17:54:39.897Z,82.59
2023-01-09T17:57:02.035Z,82.40
2023-01-09T17:59:24.765Z,82.66
2023-01-09T18:01:47.696Z,82.62
2023-01-09T18:04:10.830Z,82.64
2023-01-09T18:06:33.030Z,82.59
2023-01-09T18:08:57.347Z,82.89
2023-01-09T18:11:22.303Z,82.77
2023-01-09T18:13:46.053Z,82.41
2023-01-09T18:16:21.219Z,82.18
2023-01-09T18:18:45.046Z,82.13
2023-01-09T18:21:09.228Z,82.49
2023-01-09T18:23:31.423Z,82.46
2023-01-09T18:25:53.327Z,82.20
2023-01-09T18:28:16.122Z,82.24
2023-01-09T18:30:38.104Z,82.94
2023-01-09T18:33:00.074Z,82.85
2023-01-09T18:35:22.015Z,82.94
2023-01-09T18:37:44.302Z,82.61
2023-01-09T18:40:07.046Z,82.61
2023-01-09T18:42:28.929Z,82.74
2023-01-09T18:44:50.813Z,82.69
2023-01-09T18:47:14.057Z,82.39
2023-01-09T18:49:36.018Z,83.20
2023-01-09T18:51:58.160Z,83.23
2023-01-09T18:54:20.273Z,82.50
2023-01-09T18:56:42.244Z,82.41
2023-01-09T18:59:05.469Z,82.81
2023-01-09T19:01:30.104Z,83.10
2023-01-09T19:03:52.329Z,83.18
2023-01-09T19:06:14.546Z,82.98
2023-01-09T19:08:36.732Z,83.07
2023-01-09T19:10:59.664Z,82.92
2023-01-09T19:13:21.627Z,82.58
2023-01-09T19:15:43.833Z,82.65
2023-01-09T19:18:05.823Z,82.56
2023-01-09T19:20:28.229Z,82.45
2023-01-09T19:22:50.142Z,82.70
2023-01-09T19:25:12.588Z,82.58
2023-01-09T19:27:34.534Z,82.82
2023-01-09T19:29:56.884Z,82.75
2023-01-09T19:32:18.830Z,82.91
2023-01-09T19:34:40.763Z,82.39
2023-01-09T19:37:02.776Z,82.83
2023-01-09T19:39:24.768Z,82.33
2023-01-09T19:41:46.851Z,82.70
2023-01-09T19:44:09.192Z,82.39
2023-01-09T19:46:33.713Z,82.55
2023-01-09T19:48:58.858Z,82.96
2023-01-09T19:51:22.197Z,82.71
2023-01-09T19:53:45.130Z,83.06
2023-01-09T19:56:14.781Z,82.82
2023-01-09T19:58:36.873Z,82.76
2023-01-09T20:01:11.881Z,82.92
2023-01-09T20:03:34.133Z,82.65
2023-01-09T20:05:56.115Z,83.04
2023-01-09T20:08:18.574Z,83.15
2023-01-09T20:10:40.691Z,83.33
2023-01-09T20:13:02.669Z,83.39
2023-01-09T20:15:24.863Z,82.96
2023-01-09T20:17:46.882Z,84.16
2023-01-09T20:20:10.242Z,83.53
2023-01-09T20:22:32.807Z,83.95
2023-01-09T20:24:54.815Z,83.98
2023-01-09T20:27:16.836Z,83.89
2023-01-09T20:29:39.004Z,84.29
2023-01-09T20:32:01.480Z,84.31
2023-01-09T20:34:23.456Z,84.46
2023-01-09T20:36:46.422Z,84.52
2023-01-09T20:39:11.643Z,84.53
2023-01-09T20:41:34.297Z,84.34
2023-01-09T20:44:01.809Z,83.88
2023-01-09T20:46:28.173Z,83.08
2023-01-09T20:48:50.481Z,83.17
2023-01-09T20:51:14.031Z,82.96
2023-01-09T20:53:36.135Z,82.80
2023-01-09T20:56:06.187Z,82.63
2023-01-09T20:58:28.819Z,82.23
2023-01-09T21:00:50.933Z,81.95
2023-01-09T21:03:15.524Z,81.94
2023-01-09T21:05:40.914Z,82.34
2023-01-09T21:08:02.867Z,82.09
2023-01-09T21:10:25.022Z,82.45
2023-01-09T21:12:47.501Z,82.19
2023-01-09T21:15:15.208Z,82.67
2023-01-09T21:17:40.075Z,82.49
2023-01-09T21:20:03.688Z,82.00
2023-01-09T21:22:25.711Z,81.91
2023-01-09T21:24:51.896Z,81.68
2023-01-09T21:27:13.985Z,82.42
2023-01-09T21:29:35.941Z,82.28
2023-01-09T21:31:58.022Z,82.05
2023-01-09T21:34:20.889Z,81.95
2023-01-09T21:36:45.087Z,82.24
2023-01-09T21:39:08.439Z,82.60
2023-01-09T21:41:49.011Z,82.54
2023-01-09T21:44:33.141Z,83.29
2023-01-09T21:46:57.810Z,83.56
2023-01-09T21:49:25.824Z,83.41
2023-01-09T21:51:47.917Z,83.44
2023-01-09T21:54:10.099Z,83.34
2023-01-09T21:56:32.038Z,83.05
2023-01-09T21:58:54.039Z,83.22
2023-01-09T22:01:17.122Z,82.83
2023-01-09T22:03:39.197Z,82.93
2023-01-09T22:06:05.846Z,82.99
2023-01-09T22:08:27.729Z,82.74
2023-01-09T22:10:58.568Z,82.69
2023-01-09T22:13:20.543Z,82.44
2023-01-09T22:15:44.756Z,82.55
2023-01-09T22:18:06.663Z,83.10
2023-01-09T22:20:28.681Z,82.80
2023-01-09T22:22:50.920Z,83.09
2023-01-09T22:25:13.045Z,83.26
2023-01-09T22:27:34.966Z,83.71
2023-01-09T22:29:56.888Z,83.31
2023-01-09T22:32:18.904Z,83.04
2023-01-09T22:34:40.862Z,83.35
2023-01-09T22:37:02.954Z,83.59
2023-01-09T22:39:25.536Z,82.96
2023-01-09T22:41:54.560Z,82.70
2023-01-09T22:44:16.476Z,83.06
2023-01-09T22:46:39.088Z,83.24
2023-01-09T22:49:02.109Z,82.73
2023-01-09T22:51:24.477Z,83.38
2023-01-09T22:53:47.162Z,82.98
2023-01-09T22:56:15.683Z,83.37
2023-01-09T22:58:37.763Z,83.31
2023-01-09T23:01:00.029Z,83.50
2023-01-09T23:03:22.595Z,83.19
2023-01-09T23:05:44.629Z,83.79
2023-01-09T23:08:06.734Z,83.18
2023-01-09T23:10:28.741Z,83.68
2023-01-09T23:12:50.681Z,83.57
2023-01-09T23:15:12.647Z,84.12
2023-01-09T23:17:34.786Z,83.88
2023-01-09T23:19:56.710Z,83.77
2023-01-09T23:22:18.598Z,84.28
2023-01-09T23:24:40.888Z,84.59
2023-01-09T23:27:03.114Z,85.01
2023-01-09T23:29:26.058Z,84.89
2023-01-09T23:31:48.895Z,85.16
2023-01-09T23:34:16.801Z,85.23
2023-01-09T23:36:38.807Z,85.16
2023-01-09T23:39:02.610Z,85.24
2023-01-09T23:41:44.499Z,84.89
2023-01-09T23:44:06.298Z,84.66
2023-01-09T23:46:28.239Z,84.82
2023-01-09T23:48:50.083Z,84.53
2023-01-09T23:51:12.085Z,84.28
2023-01-09T23:53:34.100Z,84.00
2023-01-09T23:55:56.132Z,84.12
2023-01-09T23:58:18.101Z,83.88
